sensor_id;sensor_type;location;lat;lon;timestamp;temperature;humidity
68378;DHT22;55322;48.146;11.516;2023-04-24T00:00:18;10.15;93.66
68378;DHT22;55322;48.146;11.516;2023-04-24T00:02:44;10.17;93.10
68378;DHT22;55322;48.146;11.516;2023-04-24T00:05:12;10.15;93.31
68378;DHT22;55322;48.146;11.516;2023-04-24T00:07:39;10.19;93.90
68378;DHT22;55322;48.146;11.516;2023-04-24T00:10:05;10.17;93.88
68378;DHT22;55322;48.146;11.516;2023-04-24T00:12:30;10.15;93.82
68378;DHT22;55322;48.146;11.516;2023-04-24T00:14:56;10.14;93.26
68378;DHT22;55322;48.146;11.516;2023-04-24T00:17:21;10.11;93.67
68378;DHT22;55322;48.146;11.516;2023-04-24T00:19:47;10.09;93.22
68378;DHT22;55322;48.146;11.516;2023-04-24T00:22:13;10.09;93.23
68378;DHT22;55322;48.146;11.516;2023-04-24T00:24:39;10.07;93.32
68378;DHT22;55322;48.146;11.516;2023-04-24T00:27:04;10.04;93.75
68378;DHT22;55322;48.146;11.516;2023-04-24T00:29:30;10.08;93.08
68378;DHT22;55322;48.146;11.516;2023-04-24T00:31:55;10.01;92.89
68378;DHT22;55322;48.146;11.516;2023-04-24T00:34:21;9.99;92.39
68378;DHT22;55322;48.146;11.516;2023-04-24T00:36:46;10.01;92.78
68378;DHT22;55322;48.146;11.516;2023-04-24T00:39:11;10.01;92.63
68378;DHT22;55322;48.146;11.516;2023-04-24T00:41:37;9.98;92.14
68378;DHT22;55322;48.146;11.516;2023-04-24T00:44:02;9.93;92.64
68378;DHT22;55322;48.146;11.516;2023-04-24T00:46:28;9.93;92.13
68378;DHT22;55322;48.146;11.516;2023-04-24T00:48:53;9.91;92.82
68378;DHT22;55322;48.146;11.516;2023-04-24T00:51:19;9.88;92.56
68378;DHT22;55322;48.146;11.516;2023-04-24T00:53:46;9.84;93.40
68378;DHT22;55322;48.146;11.516;2023-04-24T00:56:11;9.80;93.42
68378;DHT22;55322;48.146;11.516;2023-04-24T00:58:36;9.74;93.75
68378;DHT22;55322;48.146;11.516;2023-04-24T01:01:02;9.75;93.00
68378;DHT22;55322;48.146;11.516;2023-04-24T01:03:33;9.75;91.94
68378;DHT22;55322;48.146;11.516;2023-04-24T01:05:58;9.75;92.92
68378;DHT22;55322;48.146;11.516;2023-04-24T01:08:24;9.77;91.87
68378;DHT22;55322;48.146;11.516;2023-04-24T01:10:52;9.67;92.87
68378;DHT22;55322;48.146;11.516;2023-04-24T01:13:20;9.65;92.78
68378;DHT22;55322;48.146;11.516;2023-04-24T01:15:47;9.67;92.21
68378;DHT22;55322;48.146;11.516;2023-04-24T01:18:12;9.70;92.58
68378;DHT22;55322;48.146;11.516;2023-04-24T01:20:42;9.70;92.50
68378;DHT22;55322;48.146;11.516;2023-04-24T01:23:09;9.63;92.71
68378;DHT22;55322;48.146;11.516;2023-04-24T01:25:35;9.57;93.04
68378;DHT22;55322;48.146;11.516;2023-04-24T01:28:01;9.58;91.97
68378;DHT22;55322;48.146;11.516;2023-04-24T01:30:27;9.53;92.93
68378;DHT22;55322;48.146;11.516;2023-04-24T01:32:53;9.48;93.22
68378;DHT22;55322;48.146;11.516;2023-04-24T01:35:19;9.47;92.64
68378;DHT22;55322;48.146;11.516;2023-04-24T01:37:45;9.50;91.10
68378;DHT22;55322;48.146;11.516;2023-04-24T01:40:10;9.47;92.11
68378;DHT22;55322;48.146;11.516;2023-04-24T01:42:36;9.42;92.15
68378;DHT22;55322;48.146;11.516;2023-04-24T01:45:02;9.46;91.85
68378;DHT22;55322;48.146;11.516;2023-04-24T01:47:29;9.36;92.89
68378;DHT22;55322;48.146;11.516;2023-04-24T01:49:55;9.30;92.50
68378;DHT22;55322;48.146;11.516;2023-04-24T01:52:20;9.37;92.38
68378;DHT22;55322;48.146;11.516;2023-04-24T01:54:46;9.40;91.55
68378;DHT22;55322;48.146;11.516;2023-04-24T01:57:12;9.40;90.44
68378;DHT22;55322;48.146;11.516;2023-04-24T01:59:38;9.43;91.56
68378;DHT22;55322;48.146;11.516;2023-04-24T02:02:03;9.36;91.02
68378;DHT22;55322;48.146;11.516;2023-04-24T02:04:29;9.36;90.73
68378;DHT22;55322;48.146;11.516;2023-04-24T02:06:54;9.40;90.23
68378;DHT22;55322;48.146;11.516;2023-04-24T02:09:20;9.39;90.87
68378;DHT22;55322;48.146;11.516;2023-04-24T02:11:45;9.43;91.02
68378;DHT22;55322;48.146;11.516;2023-04-24T02:14:10;9.46;89.39
68378;DHT22;55322;48.146;11.516;2023-04-24T02:16:36;9.40;89.67
68378;DHT22;55322;48.146;11.516;2023-04-24T02:19:02;9.36;90.67
68378;DHT22;55322;48.146;11.516;2023-04-24T02:21:27;9.36;90.58
68378;DHT22;55322;48.146;11.516;2023-04-24T02:23:53;9.36;91.60
68378;DHT22;55322;48.146;11.516;2023-04-24T02:26:18;9.30;90.42
68378;DHT22;55322;48.146;11.516;2023-04-24T02:28:44;9.30;91.36
68378;DHT22;55322;48.146;11.516;2023-04-24T02:31:09;9.30;91.14
68378;DHT22;55322;48.146;11.516;2023-04-24T02:33:34;9.32;91.40
68378;DHT22;55322;48.146;11.516;2023-04-24T02:36:01;9.34;90.61
68378;DHT22;55322;48.146;11.516;2023-04-24T02:38:26;9.33;91.41
68378;DHT22;55322;48.146;11.516;2023-04-24T02:40:52;9.32;89.62
68378;DHT22;55322;48.146;11.516;2023-04-24T02:43:17;9.30;90.39
68378;DHT22;55322;48.146;11.516;2023-04-24T02:45:42;9.24;91.83
68378;DHT22;55322;48.146;11.516;2023-04-24T02:48:08;9.23;91.27
68378;DHT22;55322;48.146;11.516;2023-04-24T02:50:33;9.24;91.10
68378;DHT22;55322;48.146;11.516;2023-04-24T02:52:58;9.19;92.18
68378;DHT22;55322;48.146;11.516;2023-04-24T02:55:24;9.20;91.47
68378;DHT22;55322;48.146;11.516;2023-04-24T02:57:50;9.22;92.04
68378;DHT22;55322;48.146;11.516;2023-04-24T03:00:15;9.24;90.95
68378;DHT22;55322;48.146;11.516;2023-04-24T03:02:41;9.23;92.37
68378;DHT22;55322;48.146;11.516;2023-04-24T03:05:06;9.20;92.82
68378;DHT22;55322;48.146;11.516;2023-04-24T03:07:32;9.16;93.03
68378;DHT22;55322;48.146;11.516;2023-04-24T03:09:58;9.15;93.15
68378;DHT22;55322;48.146;11.516;2023-04-24T03:12:23;9.20;92.66
68378;DHT22;55322;48.146;11.516;2023-04-24T03:14:49;9.20;92.73
68378;DHT22;55322;48.146;11.516;2023-04-24T03:17:14;9.22;92.09
68378;DHT22;55322;48.146;11.516;2023-04-24T03:19:40;9.24;92.15
68378;DHT22;55322;48.146;11.516;2023-04-24T03:22:05;9.26;91.89
68378;DHT22;55322;48.146;11.516;2023-04-24T03:24:31;9.16;92.70
68378;DHT22;55322;48.146;11.516;2023-04-24T03:26:56;9.15;92.91
68378;DHT22;55322;48.146;11.516;2023-04-24T03:29:22;9.16;92.64
68378;DHT22;55322;48.146;11.516;2023-04-24T03:31:47;9.23;92.83
68378;DHT22;55322;48.146;11.516;2023-04-24T03:34:13;9.15;93.19
68378;DHT22;55322;48.146;11.516;2023-04-24T03:36:38;9.20;92.86
68378;DHT22;55322;48.146;11.516;2023-04-24T03:39:03;9.18;92.92
68378;DHT22;55322;48.146;11.516;2023-04-24T03:41:29;9.16;92.41
68378;DHT22;55322;48.146;11.516;2023-04-24T03:43:55;9.12;92.55
68378;DHT22;55322;48.146;11.516;2023-04-24T03:46:20;9.10;93.20
68378;DHT22;55322;48.146;11.516;2023-04-24T03:48:46;9.10;93.33
68378;DHT22;55322;48.146;11.516;2023-04-24T03:51:11;9.06;94.17
68378;DHT22;55322;48.146;11.516;2023-04-24T03:53:37;8.98;94.16
68378;DHT22;55322;48.146;11.516;2023-04-24T03:56:02;8.98;94.77
68378;DHT22;55322;48.146;11.516;2023-04-24T03:58:27;9.03;94.44
68378;DHT22;55322;48.146;11.516;2023-04-24T04:00:53;8.96;94.77
68378;DHT22;55322;48.146;11.516;2023-04-24T04:03:18;9.06;93.54
68378;DHT22;55322;48.146;11.516;2023-04-24T04:05:43;9.05;92.92
68378;DHT22;55322;48.146;11.516;2023-04-24T04:08:09;9.09;93.49
68378;DHT22;55322;48.146;11.516;2023-04-24T04:10:34;8.99;93.20
68378;DHT22;55322;48.146;11.516;2023-04-24T04:12:59;9.06;93.94
68378;DHT22;55322;48.146;11.516;2023-04-24T04:15:25;9.05;94.07
68378;DHT22;55322;48.146;11.516;2023-04-24T04:17:50;9.02;93.85
68378;DHT22;55322;48.146;11.516;2023-04-24T04:20:16;9.10;93.05
68378;DHT22;55322;48.146;11.516;2023-04-24T04:22:41;9.02;93.10
68378;DHT22;55322;48.146;11.516;2023-04-24T04:25:06;9.06;93.50
68378;DHT22;55322;48.146;11.516;2023-04-24T04:27:33;9.03;93.55
68378;DHT22;55322;48.146;11.516;2023-04-24T04:30:00;9.03;93.37
68378;DHT22;55322;48.146;11.516;2023-04-24T04:32:33;9.03;93.02
68378;DHT22;55322;48.146;11.516;2023-04-24T04:35:00;8.99;93.55
68378;DHT22;55322;48.146;11.516;2023-04-24T04:37:32;9.06;92.93
68378;DHT22;55322;48.146;11.516;2023-04-24T04:39:58;9.02;94.02
68378;DHT22;55322;48.146;11.516;2023-04-24T04:42:25;9.03;93.99
68378;DHT22;55322;48.146;11.516;2023-04-24T04:44:50;9.00;93.86
68378;DHT22;55322;48.146;11.516;2023-04-24T04:47:16;8.98;94.07
68378;DHT22;55322;48.146;11.516;2023-04-24T04:49:42;9.02;93.78
68378;DHT22;55322;48.146;11.516;2023-04-24T04:52:08;9.00;94.23
68378;DHT22;55322;48.146;11.516;2023-04-24T04:54:33;9.03;93.97
68378;DHT22;55322;48.146;11.516;2023-04-24T04:56:59;9.05;93.55
68378;DHT22;55322;48.146;11.516;2023-04-24T04:59:25;8.99;93.53
68378;DHT22;55322;48.146;11.516;2023-04-24T05:01:51;8.99;93.41
68378;DHT22;55322;48.146;11.516;2023-04-24T05:04:16;8.96;93.19
68378;DHT22;55322;48.146;11.516;2023-04-24T05:06:41;8.99;93.01
68378;DHT22;55322;48.146;11.516;2023-04-24T05:09:07;9.03;92.77
68378;DHT22;55322;48.146;11.516;2023-04-24T05:11:32;9.10;92.48
68378;DHT22;55322;48.146;11.516;2023-04-24T05:13:57;9.16;92.22
68378;DHT22;55322;48.146;11.516;2023-04-24T05:16:23;9.12;92.76
68378;DHT22;55322;48.146;11.516;2023-04-24T05:18:48;9.16;91.62
68378;DHT22;55322;48.146;11.516;2023-04-24T05:21:13;9.23;91.27
68378;DHT22;55322;48.146;11.516;2023-04-24T05:23:39;9.23;91.44
68378;DHT22;55322;48.146;11.516;2023-04-24T05:26:04;9.27;90.50
68378;DHT22;55322;48.146;11.516;2023-04-24T05:28:30;9.29;90.95
68378;DHT22;55322;48.146;11.516;2023-04-24T05:30:55;9.26;91.25
68378;DHT22;55322;48.146;11.516;2023-04-24T05:33:24;9.26;91.61
68378;DHT22;55322;48.146;11.516;2023-04-24T05:35:50;9.27;90.42
68378;DHT22;55322;48.146;11.516;2023-04-24T05:38:15;9.33;89.71
68378;DHT22;55322;48.146;11.516;2023-04-24T05:40:43;9.33;89.14
68378;DHT22;55322;48.146;11.516;2023-04-24T05:43:08;9.37;90.16
68378;DHT22;55322;48.146;11.516;2023-04-24T05:45:33;9.40;90.57
68378;DHT22;55322;48.146;11.516;2023-04-24T05:48:01;9.39;89.38
68378;DHT22;55322;48.146;11.516;2023-04-24T05:50:26;9.40;88.88
68378;DHT22;55322;48.146;11.516;2023-04-24T05:52:52;9.40;90.55
68378;DHT22;55322;48.146;11.516;2023-04-24T05:55:17;9.46;89.32
68378;DHT22;55322;48.146;11.516;2023-04-24T05:57:43;9.46;88.67
68378;DHT22;55322;48.146;11.516;2023-04-24T06:00:09;9.55;89.08
68378;DHT22;55322;48.146;11.516;2023-04-24T06:02:37;9.71;90.53
68378;DHT22;55322;48.146;11.516;2023-04-24T06:05:03;9.78;90.26
68378;DHT22;55322;48.146;11.516;2023-04-24T06:07:30;9.87;88.42
68378;DHT22;55322;48.146;11.516;2023-04-24T06:09:55;9.91;88.60
68378;DHT22;55322;48.146;11.516;2023-04-24T06:12:20;9.95;87.31
68378;DHT22;55322;48.146;11.516;2023-04-24T06:14:46;10.09;87.71
68378;DHT22;55322;48.146;11.516;2023-04-24T06:17:12;10.12;87.98
68378;DHT22;55322;48.146;11.516;2023-04-24T06:19:38;10.22;88.00
68378;DHT22;55322;48.146;11.516;2023-04-24T06:22:03;10.22;88.04
68378;DHT22;55322;48.146;11.516;2023-04-24T06:24:29;10.21;86.94
68378;DHT22;55322;48.146;11.516;2023-04-24T06:26:55;10.17;88.11
68378;DHT22;55322;48.146;11.516;2023-04-24T06:29:21;10.24;87.52
68378;DHT22;55322;48.146;11.516;2023-04-24T06:31:47;10.31;86.93
68378;DHT22;55322;48.146;11.516;2023-04-24T06:34:12;10.37;87.37
68378;DHT22;55322;48.146;11.516;2023-04-24T06:36:38;10.38;86.48
68378;DHT22;55322;48.146;11.516;2023-04-24T06:39:03;10.53;86.36
68378;DHT22;55322;48.146;11.516;2023-04-24T06:41:29;10.59;84.97
68378;DHT22;55322;48.146;11.516;2023-04-24T06:43:54;10.63;85.95
68378;DHT22;55322;48.146;11.516;2023-04-24T06:46:20;10.76;85.62
68378;DHT22;55322;48.146;11.516;2023-04-24T06:48:48;10.93;84.22
68378;DHT22;55322;48.146;11.516;2023-04-24T06:51:14;11.16;84.71
68378;DHT22;55322;48.146;11.516;2023-04-24T06:53:39;11.34;83.74
68378;DHT22;55322;48.146;11.516;2023-04-24T06:56:05;11.34;82.50
68378;DHT22;55322;48.146;11.516;2023-04-24T06:58:30;11.41;82.37
68378;DHT22;55322;48.146;11.516;2023-04-24T07:00:56;11.44;82.37
68378;DHT22;55322;48.146;11.516;2023-04-24T07:03:21;11.64;81.55
68378;DHT22;55322;48.146;11.516;2023-04-24T07:05:46;12.01;80.70
68378;DHT22;55322;48.146;11.516;2023-04-24T07:08:13;12.22;79.87
68378;DHT22;55322;48.146;11.516;2023-04-24T07:10:38;12.05;79.45
68378;DHT22;55322;48.146;11.516;2023-04-24T07:13:04;11.87;79.47
68378;DHT22;55322;48.146;11.516;2023-04-24T07:15:29;11.94;79.52
68378;DHT22;55322;48.146;11.516;2023-04-24T07:17:55;11.78;79.88
68378;DHT22;55322;48.146;11.516;2023-04-24T07:20:20;11.68;79.59
68378;DHT22;55322;48.146;11.516;2023-04-24T07:22:45;11.63;79.16
68378;DHT22;55322;48.146;11.516;2023-04-24T07:25:11;11.47;80.62
68378;DHT22;55322;48.146;11.516;2023-04-24T07:27:36;11.37;79.31
68378;DHT22;55322;48.146;11.516;2023-04-24T07:30:03;11.44;80.00
68378;DHT22;55322;48.146;11.516;2023-04-24T07:32:29;11.58;79.36
68378;DHT22;55322;48.146;11.516;2023-04-24T07:34:54;11.47;79.75
68378;DHT22;55322;48.146;11.516;2023-04-24T07:37:20;11.41;80.75
68378;DHT22;55322;48.146;11.516;2023-04-24T07:39:45;11.31;79.86
68378;DHT22;55322;48.146;11.516;2023-04-24T07:42:11;11.26;80.84
68378;DHT22;55322;48.146;11.516;2023-04-24T07:44:36;11.27;80.24
68378;DHT22;55322;48.146;11.516;2023-04-24T07:47:02;11.26;80.03
68378;DHT22;55322;48.146;11.516;2023-04-24T07:49:27;11.31;80.53
68378;DHT22;55322;48.146;11.516;2023-04-24T07:51:53;11.23;80.26
68378;DHT22;55322;48.146;11.516;2023-04-24T07:54:18;11.27;79.87
68378;DHT22;55322;48.146;11.516;2023-04-24T07:56:43;11.28;79.64
68378;DHT22;55322;48.146;11.516;2023-04-24T07:59:10;11.33;80.00
68378;DHT22;55322;48.146;11.516;2023-04-24T08:01:35;11.50;78.70
68378;DHT22;55322;48.146;11.516;2023-04-24T08:04:01;11.51;79.04
68378;DHT22;55322;48.146;11.516;2023-04-24T08:06:27;11.61;78.80
68378;DHT22;55322;48.146;11.516;2023-04-24T08:08:57;11.64;78.69
68378;DHT22;55322;48.146;11.516;2023-04-24T08:11:23;11.64;79.56
68378;DHT22;55322;48.146;11.516;2023-04-24T08:13:49;11.64;77.67
68378;DHT22;55322;48.146;11.516;2023-04-24T08:16:14;11.53;79.22
68378;DHT22;55322;48.146;11.516;2023-04-24T08:18:39;11.37;79.36
68378;DHT22;55322;48.146;11.516;2023-04-24T08:21:05;11.34;79.35
68378;DHT22;55322;48.146;11.516;2023-04-24T08:23:30;11.31;79.73
68378;DHT22;55322;48.146;11.516;2023-04-24T08:25:56;11.33;80.34
68378;DHT22;55322;48.146;11.516;2023-04-24T08:28:22;11.23;82.78
68378;DHT22;55322;48.146;11.516;2023-04-24T08:30:47;11.00;86.04
68378;DHT22;55322;48.146;11.516;2023-04-24T08:33:14;10.92;86.52
68378;DHT22;55322;48.146;11.516;2023-04-24T08:35:39;10.84;88.46
68378;DHT22;55322;48.146;11.516;2023-04-24T08:38:05;10.60;88.09
68378;DHT22;55322;48.146;11.516;2023-04-24T08:40:33;10.50;88.72
68378;DHT22;55322;48.146;11.516;2023-04-24T08:42:59;10.48;88.47
68378;DHT22;55322;48.146;11.516;2023-04-24T08:45:24;10.72;87.69
68378;DHT22;55322;48.146;11.516;2023-04-24T08:47:52;10.95;85.58
68378;DHT22;55322;48.146;11.516;2023-04-24T08:50:18;11.07;84.25
68378;DHT22;55322;48.146;11.516;2023-04-24T08:52:43;10.80;84.02
68378;DHT22;55322;48.146;11.516;2023-04-24T08:55:09;10.73;80.56
68378;DHT22;55322;48.146;11.516;2023-04-24T08:57:35;10.69;81.99
68378;DHT22;55322;48.146;11.516;2023-04-24T09:00:04;10.58;81.73
68378;DHT22;55322;48.146;11.516;2023-04-24T09:02:30;10.39;81.62
68378;DHT22;55322;48.146;11.516;2023-04-24T09:04:56;10.24;82.67
68378;DHT22;55322;48.146;11.516;2023-04-24T09:07:22;10.21;79.53
68378;DHT22;55322;48.146;11.516;2023-04-24T09:09:50;10.24;80.90
68378;DHT22;55322;48.146;11.516;2023-04-24T09:12:17;10.27;80.61
68378;DHT22;55322;48.146;11.516;2023-04-24T09:14:42;10.39;80.95
68378;DHT22;55322;48.146;11.516;2023-04-24T09:17:10;10.60;80.79
68378;DHT22;55322;48.146;11.516;2023-04-24T09:19:36;10.69;81.63
68378;DHT22;55322;48.146;11.516;2023-04-24T09:22:05;10.76;80.03
68378;DHT22;55322;48.146;11.516;2023-04-24T09:24:31;10.80;78.71
68378;DHT22;55322;48.146;11.516;2023-04-24T09:26:58;10.96;79.73
68378;DHT22;55322;48.146;11.516;2023-04-24T09:29:24;11.02;77.70
68378;DHT22;55322;48.146;11.516;2023-04-24T09:31:50;11.04;75.81
68378;DHT22;55322;48.146;11.516;2023-04-24T09:34:21;11.22;77.90
68378;DHT22;55322;48.146;11.516;2023-04-24T09:36:46;11.40;77.41
68378;DHT22;55322;48.146;11.516;2023-04-24T09:39:13;11.53;75.42
68378;DHT22;55322;48.146;11.516;2023-04-24T09:41:44;11.84;74.27
68378;DHT22;55322;48.146;11.516;2023-04-24T09:44:16;11.68;73.90
68378;DHT22;55322;48.146;11.516;2023-04-24T09:46:42;11.88;73.34
68378;DHT22;55322;48.146;11.516;2023-04-24T09:49:10;12.02;72.60
68378;DHT22;55322;48.146;11.516;2023-04-24T09:51:37;12.11;73.49
68378;DHT22;55322;48.146;11.516;2023-04-24T09:54:17;12.22;72.66
68378;DHT22;55322;48.146;11.516;2023-04-24T09:56:44;12.19;73.54
68378;DHT22;55322;48.146;11.516;2023-04-24T09:59:19;12.49;72.13
68378;DHT22;55322;48.146;11.516;2023-04-24T10:01:45;12.66;72.70
68378;DHT22;55322;48.146;11.516;2023-04-24T10:04:21;13.08;72.47
68378;DHT22;55322;48.146;11.516;2023-04-24T10:06:49;13.21;68.82
68378;DHT22;55322;48.146;11.516;2023-04-24T10:09:18;13.33;69.79
68378;DHT22;55322;48.146;11.516;2023-04-24T10:11:46;13.31;69.05
68378;DHT22;55322;48.146;11.516;2023-04-24T10:14:16;13.13;69.67
68378;DHT22;55322;48.146;11.516;2023-04-24T10:16:42;13.14;69.55
68378;DHT22;55322;48.146;11.516;2023-04-24T10:19:09;12.83;70.61
68378;DHT22;55322;48.146;11.516;2023-04-24T10:21:36;12.75;69.56
68378;DHT22;55322;48.146;11.516;2023-04-24T10:24:07;12.89;71.85
68378;DHT22;55322;48.146;11.516;2023-04-24T10:26:34;12.86;71.73
68378;DHT22;55322;48.146;11.516;2023-04-24T10:29:00;13.15;70.01
68378;DHT22;55322;48.146;11.516;2023-04-24T10:31:26;13.45;69.23
68378;DHT22;55322;48.146;11.516;2023-04-24T10:33:53;13.57;69.18
68378;DHT22;55322;48.146;11.516;2023-04-24T10:36:21;13.43;68.85
68378;DHT22;55322;48.146;11.516;2023-04-24T10:38:48;13.31;68.34
68378;DHT22;55322;48.146;11.516;2023-04-24T10:41:14;12.94;70.14
68378;DHT22;55322;48.146;11.516;2023-04-24T10:43:45;12.73;71.63
68378;DHT22;55322;48.146;11.516;2023-04-24T10:46:19;12.53;72.50
68378;DHT22;55322;48.146;11.516;2023-04-24T10:48:52;12.25;73.73
68378;DHT22;55322;48.146;11.516;2023-04-24T10:51:21;11.30;79.34
68378;DHT22;55322;48.146;11.516;2023-04-24T10:53:49;10.55;80.39
68378;DHT22;55322;48.146;11.516;2023-04-24T10:56:16;10.18;83.29
68378;DHT22;55322;48.146;11.516;2023-04-24T11:01:27;9.87;86.83
68378;DHT22;55322;48.146;11.516;2023-04-24T11:04:00;9.97;86.60
68378;DHT22;55322;48.146;11.516;2023-04-24T11:06:31;10.22;87.03
68378;DHT22;55322;48.146;11.516;2023-04-24T11:09:08;10.56;84.52
68378;DHT22;55322;48.146;11.516;2023-04-24T11:11:36;10.92;84.54
68378;DHT22;55322;48.146;11.516;2023-04-24T11:14:04;11.48;83.14
68378;DHT22;55322;48.146;11.516;2023-04-24T11:16:53;12.22;83.18
68378;DHT22;55322;48.146;11.516;2023-04-24T11:19:25;12.92;79.03
68378;DHT22;55322;48.146;11.516;2023-04-24T11:22:01;13.55;78.68
68378;DHT22;55322;48.146;11.516;2023-04-24T11:24:39;13.89;74.83
68378;DHT22;55322;48.146;11.516;2023-04-24T11:27:07;14.30;75.26
68378;DHT22;55322;48.146;11.516;2023-04-24T11:35:18;13.92;72.18
68378;DHT22;55322;48.146;11.516;2023-04-24T11:37:47;13.04;74.91
68378;DHT22;55322;48.146;11.516;2023-04-24T11:40:15;12.80;74.42
68378;DHT22;55322;48.146;11.516;2023-04-24T11:42:42;12.60;75.50
68378;DHT22;55322;48.146;11.516;2023-04-24T11:45:12;12.86;74.84
68378;DHT22;55322;48.146;11.516;2023-04-24T11:47:38;13.61;75.71
68378;DHT22;55322;48.146;11.516;2023-04-24T11:50:09;14.06;73.01
68378;DHT22;55322;48.146;11.516;2023-04-24T11:52:39;13.65;70.69
68378;DHT22;55322;48.146;11.516;2023-04-24T11:55:07;13.64;69.56
68378;DHT22;55322;48.146;11.516;2023-04-24T11:57:33;13.50;71.30
68378;DHT22;55322;48.146;11.516;2023-04-24T12:00:02;13.55;69.72
68378;DHT22;55322;48.146;11.516;2023-04-24T12:02:29;14.01;70.25
68378;DHT22;55322;48.146;11.516;2023-04-24T12:04:54;13.89;65.77
68378;DHT22;55322;48.146;11.516;2023-04-24T12:07:20;14.01;67.49
68378;DHT22;55322;48.146;11.516;2023-04-24T12:09:47;13.44;70.15
68378;DHT22;55322;48.146;11.516;2023-04-24T12:12:15;13.27;71.53
68378;DHT22;55322;48.146;11.516;2023-04-24T12:14:53;13.31;71.53
68378;DHT22;55322;48.146;11.516;2023-04-24T12:17:30;13.64;68.24
68378;DHT22;55322;48.146;11.516;2023-04-24T12:20:03;13.72;69.94
68378;DHT22;55322;48.146;11.516;2023-04-24T12:22:55;13.81;69.10
68378;DHT22;55322;48.146;11.516;2023-04-24T12:25:25;13.88;65.98
68378;DHT22;55322;48.146;11.516;2023-04-24T12:28:07;13.94;66.31
68378;DHT22;55322;48.146;11.516;2023-04-24T12:30:41;14.06;62.41
68378;DHT22;55322;48.146;11.516;2023-04-24T12:33:07;14.20;63.12
68378;DHT22;55322;48.146;11.516;2023-04-24T12:35:33;14.39;58.51
68378;DHT22;55322;48.146;11.516;2023-04-24T12:38:10;14.61;63.79
68378;DHT22;55322;48.146;11.516;2023-04-24T12:40:37;15.00;58.41
68378;DHT22;55322;48.146;11.516;2023-04-24T12:43:13;15.15;59.85
68378;DHT22;55322;48.146;11.516;2023-04-24T12:45:39;15.20;59.41
68378;DHT22;55322;48.146;11.516;2023-04-24T12:48:04;15.01;55.92
68378;DHT22;55322;48.146;11.516;2023-04-24T12:50:30;14.91;57.36
68378;DHT22;55322;48.146;11.516;2023-04-24T12:52:55;15.23;62.37
68378;DHT22;55322;48.146;11.516;2023-04-24T12:55:20;15.51;58.64
68378;DHT22;55322;48.146;11.516;2023-04-24T12:57:45;15.30;57.25
68378;DHT22;55322;48.146;11.516;2023-04-24T13:00:11;15.66;53.63
68378;DHT22;55322;48.146;11.516;2023-04-24T13:02:37;15.58;55.58
68378;DHT22;55322;48.146;11.516;2023-04-24T13:05:02;15.17;53.72
68378;DHT22;55322;48.146;11.516;2023-04-24T13:07:28;14.87;54.35
68378;DHT22;55322;48.146;11.516;2023-04-24T13:09:54;14.43;56.77
68378;DHT22;55322;48.146;11.516;2023-04-24T13:12:20;13.53;59.28
68378;DHT22;55322;48.146;11.516;2023-04-24T13:14:46;13.30;61.64
68378;DHT22;55322;48.146;11.516;2023-04-24T13:17:12;13.24;62.73
68378;DHT22;55322;48.146;11.516;2023-04-24T13:19:42;13.10;63.37
68378;DHT22;55322;48.146;11.516;2023-04-24T13:22:10;13.24;62.05
68378;DHT22;55322;48.146;11.516;2023-04-24T13:24:36;13.20;60.59
68378;DHT22;55322;48.146;11.516;2023-04-24T13:27:02;13.51;61.76
68378;DHT22;55322;48.146;11.516;2023-04-24T13:29:27;14.13;64.55
68378;DHT22;55322;48.146;11.516;2023-04-24T13:31:54;14.60;59.10
68378;DHT22;55322;48.146;11.516;2023-04-24T13:34:24;14.84;60.41
68378;DHT22;55322;48.146;11.516;2023-04-24T13:36:50;14.53;58.70
68378;DHT22;55322;48.146;11.516;2023-04-24T13:39:16;14.34;57.73
68378;DHT22;55322;48.146;11.516;2023-04-24T13:41:42;14.25;58.33
68378;DHT22;55322;48.146;11.516;2023-04-24T13:44:08;14.09;57.93
68378;DHT22;55322;48.146;11.516;2023-04-24T13:46:33;13.95;56.93
68378;DHT22;55322;48.146;11.516;2023-04-24T13:48:59;13.77;58.66
68378;DHT22;55322;48.146;11.516;2023-04-24T13:51:27;13.74;56.61
68378;DHT22;55322;48.146;11.516;2023-04-24T13:53:53;13.62;54.13
68378;DHT22;55322;48.146;11.516;2023-04-24T13:56:19;13.55;58.75
68378;DHT22;55322;48.146;11.516;2023-04-24T13:58:45;13.67;53.73
68378;DHT22;55322;48.146;11.516;2023-04-24T14:01:10;13.99;58.76
68378;DHT22;55322;48.146;11.516;2023-04-24T14:03:37;14.42;55.34
68378;DHT22;55322;48.146;11.516;2023-04-24T14:06:02;14.57;54.32
68378;DHT22;55322;48.146;11.516;2023-04-24T14:08:27;14.32;53.37
68378;DHT22;55322;48.146;11.516;2023-04-24T14:10:53;14.22;57.09
68378;DHT22;55322;48.146;11.516;2023-04-24T14:13:19;14.28;60.14
68378;DHT22;55322;48.146;11.516;2023-04-24T14:15:44;14.08;59.14
68378;DHT22;55322;48.146;11.516;2023-04-24T14:18:09;14.08;59.00
68378;DHT22;55322;48.146;11.516;2023-04-24T14:20:35;13.96;57.40
68378;DHT22;55322;48.146;11.516;2023-04-24T14:23:00;14.09;56.22
68378;DHT22;55322;48.146;11.516;2023-04-24T14:25:26;14.13;55.62
68378;DHT22;55322;48.146;11.516;2023-04-24T14:27:51;13.88;57.67
68378;DHT22;55322;48.146;11.516;2023-04-24T14:30:17;14.30;56.12
68378;DHT22;55322;48.146;11.516;2023-04-24T14:32:43;14.43;56.32
68378;DHT22;55322;48.146;11.516;2023-04-24T14:35:08;14.60;56.81
68378;DHT22;55322;48.146;11.516;2023-04-24T14:37:34;14.66;54.95
68378;DHT22;55322;48.146;11.516;2023-04-24T14:39:59;14.61;54.20
68378;DHT22;55322;48.146;11.516;2023-04-24T14:42:24;14.18;57.46
68378;DHT22;55322;48.146;11.516;2023-04-24T14:44:50;13.94;55.81
68378;DHT22;55322;48.146;11.516;2023-04-24T14:47:16;13.85;55.49
68378;DHT22;55322;48.146;11.516;2023-04-24T14:49:42;14.04;55.14
68378;DHT22;55322;48.146;11.516;2023-04-24T14:52:09;13.85;53.77
68378;DHT22;55322;48.146;11.516;2023-04-24T14:54:34;13.98;53.93
68378;DHT22;55322;48.146;11.516;2023-04-24T14:57:00;13.85;55.17
68378;DHT22;55322;48.146;11.516;2023-04-24T14:59:27;13.89;52.72
68378;DHT22;55322;48.146;11.516;2023-04-24T15:01:52;14.04;54.23
68378;DHT22;55322;48.146;11.516;2023-04-24T15:04:21;14.16;53.77
68378;DHT22;55322;48.146;11.516;2023-04-24T15:06:47;14.10;53.80
68378;DHT22;55322;48.146;11.516;2023-04-24T15:09:12;13.95;53.46
68378;DHT22;55322;48.146;11.516;2023-04-24T15:11:37;13.71;54.27
68378;DHT22;55322;48.146;11.516;2023-04-24T15:14:03;13.68;54.43
68378;DHT22;55322;48.146;11.516;2023-04-24T15:16:28;13.68;53.51
68378;DHT22;55322;48.146;11.516;2023-04-24T15:18:53;13.54;52.89
68378;DHT22;55322;48.146;11.516;2023-04-24T15:21:19;13.58;53.27
68378;DHT22;55322;48.146;11.516;2023-04-24T15:23:44;13.61;53.08
68378;DHT22;55322;48.146;11.516;2023-04-24T15:26:09;14.05;55.18